sensor_id;sensor_type;location;lat;lon;timestamp;P1;durP1;ratioP1;P2;durP2;ratioP2
38783;SDS011;24531;45.502;12.238;2023-04-03T00:01:31;9.75;;;5.28;;
38783;SDS011;24531;45.502;12.238;2023-04-03T00:03:57;5.35;;;4.55;;
38783;SDS011;24531;45.502;12.238;2023-04-03T00:06:23;9.40;;;4.53;;
38783;SDS011;24531;45.502;12.238;2023-04-03T00:08:50;7.97;;;5.57;;
38783;SDS011;24531;45.502;12.238;2023-04-03T00:11:16;10.70;;;4.93;;
38783;SDS011;24531;45.502;12.238;2023-04-03T00:13:43;8.07;;;4.75;;
38783;SDS011;24531;45.502;12.238;2023-04-03T00:16:09;8.25;;;4.68;;
38783;SDS011;24531;45.502;12.238;2023-04-03T00:18:36;7.05;;;5.03;;
38783;SDS011;24531;45.502;12.238;2023-04-03T00:21:03;8.38;;;5.68;;
38783;SDS011;24531;45.502;12.238;2023-04-03T00:23:30;7.95;;;5.45;;
38783;SDS011;24531;45.502;12.238;2023-04-03T00:25:55;11.05;;;6.32;;
38783;SDS011;24531;45.502;12.238;2023-04-03T00:28:21;9.35;;;6.13;;
38783;SDS011;24531;45.502;12.238;2023-04-03T00:30:50;10.15;;;5.90;;
38783;SDS011;24531;45.502;12.238;2023-04-03T00:33:16;11.68;;;6.30;;
38783;SDS011;24531;45.502;12.238;2023-04-03T00:35:42;8.68;;;6.07;;
38783;SDS011;24531;45.502;12.238;2023-04-03T00:38:07;9.50;;;5.97;;
38783;SDS011;24531;45.502;12.238;2023-04-03T00:40:34;8.70;;;6.32;;
38783;SDS011;24531;45.502;12.238;2023-04-03T00:43:01;8.48;;;6.22;;
38783;SDS011;24531;45.502;12.238;2023-04-03T00:45:39;11.80;;;6.43;;
38783;SDS011;24531;45.502;12.238;2023-04-03T00:48:07;10.35;;;6.50;;
38783;SDS011;24531;45.502;12.238;2023-04-03T00:50:38;10.00;;;5.63;;
38783;SDS011;24531;45.502;12.238;2023-04-03T00:53:06;12.25;;;6.32;;
38783;SDS011;24531;45.502;12.238;2023-04-03T00:55:34;9.55;;;6.32;;
38783;SDS011;24531;45.502;12.238;2023-04-03T00:58:02;10.23;;;6.40;;
38783;SDS011;24531;45.502;12.238;2023-04-03T01:00:28;10.45;;;6.50;;
38783;SDS011;24531;45.502;12.238;2023-04-03T01:02:54;9.45;;;5.90;;
38783;SDS011;24531;45.502;12.238;2023-04-03T01:05:20;7.57;;;5.18;;
38783;SDS011;24531;45.502;12.238;2023-04-03T01:07:46;5.80;;;4.10;;
38783;SDS011;24531;45.502;12.238;2023-04-03T01:10:14;8.07;;;4.65;;
38783;SDS011;24531;45.502;12.238;2023-04-03T01:12:42;8.80;;;5.22;;
38783;SDS011;24531;45.502;12.238;2023-04-03T01:15:11;8.90;;;5.60;;
38783;SDS011;24531;45.502;12.238;2023-04-03T01:23:06;8.05;;;4.75;;
38783;SDS011;24531;45.502;12.238;2023-04-03T01:28:14;11.00;;;5.25;;
38783;SDS011;24531;45.502;12.238;2023-04-03T01:30:45;5.90;;;4.45;;
38783;SDS011;24531;45.502;12.238;2023-04-03T01:33:20;9.52;;;4.82;;
38783;SDS011;24531;45.502;12.238;2023-04-03T01:35:46;6.40;;;4.07;;
38783;SDS011;24531;45.502;12.238;2023-04-03T01:38:12;5.97;;;4.25;;
38783;SDS011;24531;45.502;12.238;2023-04-03T01:40:37;4.47;;;3.30;;
38783;SDS011;24531;45.502;12.238;2023-04-03T01:43:03;5.57;;;3.80;;
38783;SDS011;24531;45.502;12.238;2023-04-03T01:45:29;5.10;;;3.40;;
38783;SDS011;24531;45.502;12.238;2023-04-03T01:47:54;5.07;;;3.03;;
38783;SDS011;24531;45.502;12.238;2023-04-03T01:50:20;3.70;;;2.20;;
38783;SDS011;24531;45.502;12.238;2023-04-03T01:52:45;4.82;;;2.63;;
38783;SDS011;24531;45.502;12.238;2023-04-03T01:55:11;3.05;;;2.10;;
38783;SDS011;24531;45.502;12.238;2023-04-03T01:57:37;4.53;;;2.20;;
38783;SDS011;24531;45.502;12.238;2023-04-03T02:00:02;2.42;;;1.60;;
38783;SDS011;24531;45.502;12.238;2023-04-03T02:02:28;2.08;;;1.88;;
38783;SDS011;24531;45.502;12.238;2023-04-03T02:04:54;2.53;;;1.65;;
38783;SDS011;24531;45.502;12.238;2023-04-03T02:07:20;2.00;;;1.58;;
38783;SDS011;24531;45.502;12.238;2023-04-03T02:09:46;2.00;;;1.40;;
38783;SDS011;24531;45.502;12.238;2023-04-03T02:12:12;3.63;;;1.60;;
38783;SDS011;24531;45.502;12.238;2023-04-03T02:14:38;2.40;;;1.63;;
38783;SDS011;24531;45.502;12.238;2023-04-03T02:17:03;2.78;;;1.52;;
38783;SDS011;24531;45.502;12.238;2023-04-03T02:19:33;1.90;;;1.38;;
38783;SDS011;24531;45.502;12.238;2023-04-03T02:22:00;2.78;;;1.25;;
38783;SDS011;24531;45.502;12.238;2023-04-03T02:24:26;4.03;;;1.30;;
38783;SDS011;24531;45.502;12.238;2023-04-03T02:26:52;2.47;;;1.67;;
38783;SDS011;24531;45.502;12.238;2023-04-03T02:29:18;3.15;;;1.40;;
38783;SDS011;24531;45.502;12.238;2023-04-03T02:31:44;2.55;;;1.00;;
38783;SDS011;24531;45.502;12.238;2023-04-03T02:34:10;1.92;;;1.10;;
38783;SDS011;24531;45.502;12.238;2023-04-03T02:36:35;1.67;;;1.33;;
38783;SDS011;24531;45.502;12.238;2023-04-03T02:39:01;1.58;;;1.10;;
38783;SDS011;24531;45.502;12.238;2023-04-03T02:41:30;2.58;;;1.58;;
38783;SDS011;24531;45.502;12.238;2023-04-03T02:44:00;4.53;;;1.50;;
38783;SDS011;24531;45.502;12.238;2023-04-03T02:46:27;2.70;;;1.60;;
38783;SDS011;24531;45.502;12.238;2023-04-03T02:48:53;3.88;;;1.90;;
38783;SDS011;24531;45.502;12.238;2023-04-03T02:51:18;3.60;;;2.25;;
38783;SDS011;24531;45.502;12.238;2023-04-03T02:53:44;4.03;;;2.83;;
38783;SDS011;24531;45.502;12.238;2023-04-03T02:56:10;3.95;;;2.95;;
38783;SDS011;24531;45.502;12.238;2023-04-03T02:58:35;3.92;;;3.25;;
38783;SDS011;24531;45.502;12.238;2023-04-03T03:01:01;7.45;;;3.72;;
38783;SDS011;24531;45.502;12.238;2023-04-03T03:03:29;7.45;;;3.85;;
38783;SDS011;24531;45.502;12.238;2023-04-03T03:06:02;6.15;;;3.67;;
38783;SDS011;24531;45.502;12.238;2023-04-03T03:08:32;6.65;;;4.40;;
38783;SDS011;24531;45.502;12.238;2023-04-03T03:10:58;6.68;;;4.28;;
38783;SDS011;24531;45.502;12.238;2023-04-03T03:13:24;9.30;;;4.60;;
38783;SDS011;24531;45.502;12.238;2023-04-03T03:15:49;7.75;;;4.60;;
38783;SDS011;24531;45.502;12.238;2023-04-03T03:18:15;8.07;;;4.38;;
38783;SDS011;24531;45.502;12.238;2023-04-03T03:20:41;6.20;;;4.57;;
38783;SDS011;24531;45.502;12.238;2023-04-03T03:23:06;7.55;;;5.28;;
38783;SDS011;24531;45.502;12.238;2023-04-03T03:25:32;7.47;;;4.90;;
38783;SDS011;24531;45.502;12.238;2023-04-03T03:27:57;7.30;;;4.80;;
38783;SDS011;24531;45.502;12.238;2023-04-03T03:30:23;7.80;;;5.20;;
38783;SDS011;24531;45.502;12.238;2023-04-03T03:32:49;5.85;;;4.50;;
38783;SDS011;24531;45.502;12.238;2023-04-03T03:35:15;11.45;;;5.13;;
38783;SDS011;24531;45.502;12.238;2023-04-03T03:37:40;8.00;;;4.97;;
38783;SDS011;24531;45.502;12.238;2023-04-03T03:40:06;6.70;;;4.07;;
38783;SDS011;24531;45.502;12.238;2023-04-03T03:42:32;9.35;;;4.50;;
38783;SDS011;24531;45.502;12.238;2023-04-03T03:44:58;7.43;;;4.22;;
38783;SDS011;24531;45.502;12.238;2023-04-03T03:47:23;6.10;;;4.20;;
38783;SDS011;24531;45.502;12.238;2023-04-03T03:49:49;4.75;;;3.67;;
38783;SDS011;24531;45.502;12.238;2023-04-03T03:52:15;6.05;;;3.95;;
38783;SDS011;24531;45.502;12.238;2023-04-03T03:54:40;5.40;;;3.60;;
38783;SDS011;24531;45.502;12.238;2023-04-03T03:57:06;7.07;;;4.18;;
38783;SDS011;24531;45.502;12.238;2023-04-03T03:59:31;6.78;;;3.58;;
38783;SDS011;24531;45.502;12.238;2023-04-03T04:01:57;7.22;;;3.60;;
38783;SDS011;24531;45.502;12.238;2023-04-03T04:04:23;10.80;;;3.33;;
38783;SDS011;24531;45.502;12.238;2023-04-03T04:06:48;3.85;;;3.25;;
38783;SDS011;24531;45.502;12.238;2023-04-03T04:09:14;5.72;;;3.15;;
38783;SDS011;24531;45.502;12.238;2023-04-03T04:11:39;5.70;;;3.17;;
38783;SDS011;24531;45.502;12.238;2023-04-03T04:14:06;4.78;;;3.25;;
38783;SDS011;24531;45.502;12.238;2023-04-03T04:16:32;8.85;;;3.67;;
38783;SDS011;24531;45.502;12.238;2023-04-03T04:18:58;6.95;;;3.70;;
38783;SDS011;24531;45.502;12.238;2023-04-03T04:21:23;5.57;;;3.13;;
38783;SDS011;24531;45.502;12.238;2023-04-03T04:23:49;8.10;;;3.72;;
38783;SDS011;24531;45.502;12.238;2023-04-03T04:26:14;7.22;;;3.55;;
38783;SDS011;24531;45.502;12.238;2023-04-03T04:28:40;5.18;;;3.35;;
38783;SDS011;24531;45.502;12.238;2023-04-03T04:31:06;7.75;;;3.97;;
38783;SDS011;24531;45.502;12.238;2023-04-03T04:33:31;7.47;;;3.58;;
38783;SDS011;24531;45.502;12.238;2023-04-03T04:35:57;7.40;;;2.85;;
38783;SDS011;24531;45.502;12.238;2023-04-03T04:38:22;10.27;;;3.45;;
38783;SDS011;24531;45.502;12.238;2023-04-03T04:40:48;8.35;;;3.45;;
38783;SDS011;24531;45.502;12.238;2023-04-03T04:43:14;8.82;;;3.58;;
38783;SDS011;24531;45.502;12.238;2023-04-03T04:45:40;10.45;;;4.07;;
38783;SDS011;24531;45.502;12.238;2023-04-03T04:48:06;8.02;;;4.10;;
38783;SDS011;24531;45.502;12.238;2023-04-03T04:50:32;5.57;;;3.60;;
38783;SDS011;24531;45.502;12.238;2023-04-03T04:52:57;8.35;;;3.17;;
38783;SDS011;24531;45.502;12.238;2023-04-03T04:55:23;9.30;;;4.00;;
38783;SDS011;24531;45.502;12.238;2023-04-03T04:57:48;9.57;;;3.70;;
38783;SDS011;24531;45.502;12.238;2023-04-03T05:00:14;5.45;;;3.88;;
38783;SDS011;24531;45.502;12.238;2023-04-03T05:02:40;6.72;;;3.75;;
38783;SDS011;24531;45.502;12.238;2023-04-03T05:05:06;8.90;;;4.45;;
38783;SDS011;24531;45.502;12.238;2023-04-03T05:07:32;7.82;;;4.80;;
38783;SDS011;24531;45.502;12.238;2023-04-03T05:09:58;9.73;;;3.97;;
38783;SDS011;24531;45.502;12.238;2023-04-03T05:12:23;7.93;;;4.03;;
38783;SDS011;24531;45.502;12.238;2023-04-03T05:14:49;10.00;;;4.15;;
38783;SDS011;24531;45.502;12.238;2023-04-03T05:17:15;4.47;;;3.35;;
38783;SDS011;24531;45.502;12.238;2023-04-03T05:19:40;8.07;;;4.15;;
38783;SDS011;24531;45.502;12.238;2023-04-03T05:22:06;6.88;;;3.95;;
38783;SDS011;24531;45.502;12.238;2023-04-03T05:24:32;7.80;;;3.72;;
38783;SDS011;24531;45.502;12.238;2023-04-03T05:26:58;8.70;;;3.70;;
38783;SDS011;24531;45.502;12.238;2023-04-03T05:29:23;4.55;;;3.38;;
38783;SDS011;24531;45.502;12.238;2023-04-03T05:31:49;5.72;;;3.22;;
38783;SDS011;24531;45.502;12.238;2023-04-03T05:34:15;5.00;;;3.55;;
38783;SDS011;24531;45.502;12.238;2023-04-03T05:36:41;6.70;;;2.80;;
38783;SDS011;24531;45.502;12.238;2023-04-03T05:39:07;5.93;;;3.15;;
38783;SDS011;24531;45.502;12.238;2023-04-03T05:41:32;5.50;;;2.75;;
38783;SDS011;24531;45.502;12.238;2023-04-03T05:43:58;5.00;;;2.38;;
38783;SDS011;24531;45.502;12.238;2023-04-03T05:46:24;6.57;;;2.70;;
38783;SDS011;24531;45.502;12.238;2023-04-03T05:48:50;6.10;;;2.63;;
38783;SDS011;24531;45.502;12.238;2023-04-03T05:51:17;6.68;;;2.10;;
38783;SDS011;24531;45.502;12.238;2023-04-03T05:53:58;3.50;;;2.05;;
38783;SDS011;24531;45.502;12.238;2023-04-03T05:56:29;4.45;;;2.00;;
38783;SDS011;24531;45.502;12.238;2023-04-03T05:58:55;3.13;;;1.63;;
38783;SDS011;24531;45.502;12.238;2023-04-03T06:01:21;7.72;;;1.52;;
38783;SDS011;24531;45.502;12.238;2023-04-03T06:03:46;3.33;;;1.73;;
38783;SDS011;24531;45.502;12.238;2023-04-03T06:06:13;3.22;;;1.42;;
38783;SDS011;24531;45.502;12.238;2023-04-03T06:08:39;4.03;;;2.17;;
38783;SDS011;24531;45.502;12.238;2023-04-03T06:11:05;3.50;;;1.63;;
38783;SDS011;24531;45.502;12.238;2023-04-03T06:13:30;6.32;;;1.50;;
38783;SDS011;24531;45.502;12.238;2023-04-03T06:15:56;2.38;;;1.58;;
38783;SDS011;24531;45.502;12.238;2023-04-03T06:18:22;7.13;;;1.60;;
38783;SDS011;24531;45.502;12.238;2023-04-03T06:20:48;3.97;;;1.42;;
38783;SDS011;24531;45.502;12.238;2023-04-03T06:23:13;2.58;;;1.35;;
38783;SDS011;24531;45.502;12.238;2023-04-03T06:25:39;7.20;;;1.60;;
38783;SDS011;24531;45.502;12.238;2023-04-03T06:28:05;3.92;;;1.73;;
38783;SDS011;24531;45.502;12.238;2023-04-03T06:30:34;3.50;;;1.30;;
38783;SDS011;24531;45.502;12.238;2023-04-03T06:33:00;2.97;;;1.33;;
38783;SDS011;24531;45.502;12.238;2023-04-03T06:35:25;5.63;;;1.80;;
38783;SDS011;24531;45.502;12.238;2023-04-03T06:37:53;2.28;;;1.50;;
38783;SDS011;24531;45.502;12.238;2023-04-03T06:40:19;1.92;;;1.40;;
38783;SDS011;24531;45.502;12.238;2023-04-03T06:42:47;7.45;;;1.73;;
38783;SDS011;24531;45.502;12.238;2023-04-03T06:45:13;4.65;;;1.77;;
38783;SDS011;24531;45.502;12.238;2023-04-03T06:47:39;9.32;;;1.80;;
38783;SDS011;24531;45.502;12.238;2023-04-03T06:50:05;2.85;;;1.23;;
38783;SDS011;24531;45.502;12.238;2023-04-03T06:52:31;3.17;;;1.48;;
38783;SDS011;24531;45.502;12.238;2023-04-03T06:54:57;5.03;;;1.73;;
38783;SDS011;24531;45.502;12.238;2023-04-03T06:57:24;4.30;;;2.20;;
38783;SDS011;24531;45.502;12.238;2023-04-03T06:59:50;6.10;;;1.60;;
38783;SDS011;24531;45.502;12.238;2023-04-03T07:02:16;14.20;;;1.80;;
38783;SDS011;24531;45.502;12.238;2023-04-03T07:04:42;7.43;;;1.42;;
38783;SDS011;24531;45.502;12.238;2023-04-03T07:07:07;2.20;;;1.35;;
38783;SDS011;24531;45.502;12.238;2023-04-03T07:12:21;4.47;;;1.42;;
38783;SDS011;24531;45.502;12.238;2023-04-03T07:14:46;5.10;;;1.42;;
38783;SDS011;24531;45.502;12.238;2023-04-03T07:17:12;5.13;;;1.63;;
38783;SDS011;24531;45.502;12.238;2023-04-03T07:19:38;6.13;;;1.45;;
38783;SDS011;24531;45.502;12.238;2023-04-03T07:22:03;4.68;;;1.52;;
38783;SDS011;24531;45.502;12.238;2023-04-03T07:24:29;5.65;;;1.33;;
38783;SDS011;24531;45.502;12.238;2023-04-03T07:26:54;5.95;;;1.30;;
38783;SDS011;24531;45.502;12.238;2023-04-03T07:29:20;5.05;;;1.40;;
38783;SDS011;24531;45.502;12.238;2023-04-03T07:31:46;7.38;;;1.58;;
38783;SDS011;24531;45.502;12.238;2023-04-03T07:34:12;2.78;;;1.20;;
38783;SDS011;24531;45.502;12.238;2023-04-03T07:36:38;5.07;;;1.48;;
38783;SDS011;24531;45.502;12.238;2023-04-03T07:39:03;8.27;;;1.35;;
38783;SDS011;24531;45.502;12.238;2023-04-03T07:41:29;11.13;;;1.70;;
38783;SDS011;24531;45.502;12.238;2023-04-03T07:43:55;1.48;;;1.20;;
38783;SDS011;24531;45.502;12.238;2023-04-03T07:46:21;4.40;;;1.38;;
38783;SDS011;24531;45.502;12.238;2023-04-03T07:48:47;9.63;;;1.90;;
38783;SDS011;24531;45.502;12.238;2023-04-03T07:51:13;9.13;;;1.42;;
38783;SDS011;24531;45.502;12.238;2023-04-03T07:53:39;7.30;;;1.42;;
38783;SDS011;24531;45.502;12.238;2023-04-03T07:56:05;5.50;;;1.38;;
38783;SDS011;24531;45.502;12.238;2023-04-03T07:58:32;10.35;;;2.10;;
38783;SDS011;24531;45.502;12.238;2023-04-03T08:00:58;5.47;;;1.70;;
38783;SDS011;24531;45.502;12.238;2023-04-03T08:03:24;7.93;;;1.23;;
38783;SDS011;24531;45.502;12.238;2023-04-03T08:05:50;5.88;;;1.67;;
38783;SDS011;24531;45.502;12.238;2023-04-03T08:08:17;6.68;;;1.73;;
38783;SDS011;24531;45.502;12.238;2023-04-03T08:10:48;4.93;;;1.33;;
38783;SDS011;24531;45.502;12.238;2023-04-03T08:13:15;5.65;;;1.42;;
38783;SDS011;24531;45.502;12.238;2023-04-03T08:15:40;8.15;;;1.98;;
38783;SDS011;24531;45.502;12.238;2023-04-03T08:18:06;5.03;;;1.60;;
38783;SDS011;24531;45.502;12.238;2023-04-03T08:20:31;5.32;;;1.58;;
38783;SDS011;24531;45.502;12.238;2023-04-03T08:22:57;11.02;;;1.73;;
38783;SDS011;24531;45.502;12.238;2023-04-03T08:25:23;12.32;;;1.95;;
38783;SDS011;24531;45.502;12.238;2023-04-03T08:27:48;13.18;;;2.00;;
38783;SDS011;24531;45.502;12.238;2023-04-03T08:30:14;8.05;;;1.77;;
38783;SDS011;24531;45.502;12.238;2023-04-03T08:32:40;11.18;;;2.08;;
38783;SDS011;24531;45.502;12.238;2023-04-03T08:35:09;7.15;;;2.40;;
38783;SDS011;24531;45.502;12.238;2023-04-03T08:37:35;8.68;;;2.55;;
38783;SDS011;24531;45.502;12.238;2023-04-03T08:40:02;6.93;;;1.90;;
38783;SDS011;24531;45.502;12.238;2023-04-03T08:45:17;19.98;;;2.38;;
38783;SDS011;24531;45.502;12.238;2023-04-03T08:47:52;12.02;;;2.42;;
38783;SDS011;24531;45.502;12.238;2023-04-03T08:50:23;15.82;;;2.50;;
38783;SDS011;24531;45.502;12.238;2023-04-03T08:52:58;6.28;;;1.83;;
38783;SDS011;24531;45.502;12.238;2023-04-03T08:55:27;13.88;;;1.95;;
38783;SDS011;24531;45.502;12.238;2023-04-03T08:58:02;8.60;;;2.00;;
38783;SDS011;24531;45.502;12.238;2023-04-03T09:00:39;7.05;;;1.83;;
38783;SDS011;24531;45.502;12.238;2023-04-03T09:03:12;11.82;;;2.63;;
38783;SDS011;24531;45.502;12.238;2023-04-03T09:05:40;9.75;;;2.15;;
38783;SDS011;24531;45.502;12.238;2023-04-03T09:11:03;7.63;;;1.85;;
38783;SDS011;24531;45.502;12.238;2023-04-03T09:21:46;9.23;;;1.55;;
38783;SDS011;24531;45.502;12.238;2023-04-03T09:24:12;14.15;;;2.13;;
38783;SDS011;24531;45.502;12.238;2023-04-03T09:27:03;8.55;;;2.03;;
38783;SDS011;24531;45.502;12.238;2023-04-03T09:29:28;8.93;;;1.92;;
38783;SDS011;24531;45.502;12.238;2023-04-03T09:32:01;15.52;;;2.67;;
38783;SDS011;24531;45.502;12.238;2023-04-03T09:34:37;9.73;;;2.13;;
38783;SDS011;24531;45.502;12.238;2023-04-03T09:37:05;6.50;;;1.65;;
38783;SDS011;24531;45.502;12.238;2023-04-03T09:39:48;9.75;;;2.08;;
38783;SDS011;24531;45.502;12.238;2023-04-03T09:42:22;11.75;;;2.10;;
38783;SDS011;24531;45.502;12.238;2023-04-03T09:44:59;5.85;;;1.58;;
38783;SDS011;24531;45.502;12.238;2023-04-03T09:47:30;7.63;;;1.80;;
38783;SDS011;24531;45.502;12.238;2023-04-03T09:52:44;4.72;;;1.23;;
38783;SDS011;24531;45.502;12.238;2023-04-03T09:55:15;10.57;;;1.83;;
38783;SDS011;24531;45.502;12.238;2023-04-03T09:57:54;11.90;;;1.75;;
38783;SDS011;24531;45.502;12.238;2023-04-03T10:00:30;6.47;;;1.48;;
38783;SDS011;24531;45.502;12.238;2023-04-03T10:03:00;8.20;;;1.88;;
38783;SDS011;24531;45.502;12.238;2023-04-03T10:08:23;6.57;;;1.73;;
38783;SDS011;24531;45.502;12.238;2023-04-03T10:16:48;3.40;;;1.38;;
38783;SDS011;24531;45.502;12.238;2023-04-03T10:19:31;8.40;;;1.50;;
38783;SDS011;24531;45.502;12.238;2023-04-03T10:24:48;11.80;;;1.27;;
38783;SDS011;24531;45.502;12.238;2023-04-03T10:33:59;11.23;;;1.85;;
38783;SDS011;24531;45.502;12.238;2023-04-03T10:36:10;6.82;;;1.52;;
38783;SDS011;24531;45.502;12.238;2023-04-03T10:47:26;7.70;;;1.55;;
38783;SDS011;24531;45.502;12.238;2023-04-03T10:50:27;10.70;;;1.27;;
38783;SDS011;24531;45.502;12.238;2023-04-03T11:01:28;7.85;;;1.60;;
38783;SDS011;24531;45.502;12.238;2023-04-03T11:03:59;6.43;;;1.47;;
38783;SDS011;24531;45.502;12.238;2023-04-03T11:07:11;6.28;;;1.50;;
38783;SDS011;24531;45.502;12.238;2023-04-03T11:09:27;4.50;;;1.63;;
38783;SDS011;24531;45.502;12.238;2023-04-03T11:12:01;6.72;;;1.58;;
38783;SDS011;24531;45.502;12.238;2023-04-03T11:14:37;6.93;;;1.10;;
38783;SDS011;24531;45.502;12.238;2023-04-03T11:19:49;7.32;;;1.48;;
38783;SDS011;24531;45.502;12.238;2023-04-03T11:22:39;3.60;;;1.35;;
38783;SDS011;24531;45.502;12.238;2023-04-03T11:35:45;7.88;;;2.22;;
38783;SDS011;24531;45.502;12.238;2023-04-03T11:38:18;11.57;;;2.22;;
38783;SDS011;24531;45.502;12.238;2023-04-03T11:40:48;5.90;;;1.30;;
38783;SDS011;24531;45.502;12.238;2023-04-03T11:43:25;7.68;;;1.10;;
38783;SDS011;24531;45.502;12.238;2023-04-03T11:45:58;7.32;;;1.73;;
38783;SDS011;24531;45.502;12.238;2023-04-03T11:50:59;4.07;;;1.02;;
38783;SDS011;24531;45.502;12.238;2023-04-03T11:53:37;2.28;;;1.00;;
38783;SDS011;24531;45.502;12.238;2023-04-03T12:01:55;7.70;;;1.55;;
38783;SDS011;24531;45.502;12.238;2023-04-03T12:04:23;6.60;;;1.20;;
38783;SDS011;24531;45.502;12.238;2023-04-03T12:06:53;5.78;;;1.00;;
38783;SDS011;24531;45.502;12.238;2023-04-03T12:09:26;3.88;;;1.33;;
38783;SDS011;24531;45.502;12.238;2023-04-03T12:14:53;5.68;;;1.45;;
38783;SDS011;24531;45.502;12.238;2023-04-03T12:17:20;7.28;;;1.92;;
38783;SDS011;24531;45.502;12.238;2023-04-03T12:19:51;6.10;;;1.50;;
38783;SDS011;24531;45.502;12.238;2023-04-03T12:22:18;3.65;;;1.02;;
38783;SDS011;24531;45.502;12.238;2023-04-03T12:24:46;8.73;;;1.40;;
38783;SDS011;24531;45.502;12.238;2023-04-03T12:27:20;8.02;;;1.73;;
38783;SDS011;24531;45.502;12.238;2023-04-03T12:40:25;5.15;;;1.20;;
38783;SDS011;24531;45.502;12.238;2023-04-03T12:45:30;3.90;;;0.88;;
38783;SDS011;24531;45.502;12.238;2023-04-03T12:48:06;4.00;;;1.02;;
38783;SDS011;24531;45.502;12.238;2023-04-03T12:50:43;4.70;;;1.33;;
38783;SDS011;24531;45.502;12.238;2023-04-03T12:55:47;4.13;;;1.20;;
38783;SDS011;24531;45.502;12.238;2023-04-03T12:58:22;7.55;;;1.27;;
38783;SDS011;24531;45.502;12.238;2023-04-03T13:03:34;11.02;;;1.40;;
38783;SDS011;24531;45.502;12.238;2023-04-03T13:06:04;6.85;;;1.40;;
38783;SDS011;24531;45.502;12.238;2023-04-03T13:08:30;4.88;;;1.42;;
38783;SDS011;24531;45.502;12.238;2023-04-03T13:11:08;2.90;;;1.10;;
38783;SDS011;24531;45.502;12.238;2023-04-03T13:13:36;4.38;;;1.48;;
38783;SDS011;24531;45.502;12.238;2023-04-03T13:16:10;9.07;;;1.20;;
38783;SDS011;24531;45.502;12.238;2023-04-03T13:18:38;5.32;;;1.15;;
38783;SDS011;24531;45.502;12.238;2023-04-03T13:21:05;3.03;;;1.00;;
38783;SDS011;24531;45.502;12.238;2023-04-03T13:23:41;5.03;;;1.20;;
38783;SDS011;24531;45.502;12.238;2023-04-03T13:26:10;5.10;;;1.17;;
38783;SDS011;24531;45.502;12.238;2023-04-03T13:28:36;3.10;;;1.20;;
38783;SDS011;24531;45.502;12.238;2023-04-03T13:33:39;4.80;;;1.00;;
38783;SDS011;24531;45.502;12.238;2023-04-03T13:36:19;4.22;;;1.15;;
38783;SDS011;24531;45.502;12.238;2023-04-03T13:39:01;6.13;;;0.88;;
38783;SDS011;24531;45.502;12.238;2023-04-03T13:41:30;2.83;;;1.08;;
38783;SDS011;24531;45.502;12.238;2023-04-03T13:44:15;3.78;;;1.00;;
38783;SDS011;24531;45.502;12.238;2023-04-03T13:46:41;2.63;;;0.90;;
38783;SDS011;24531;45.502;12.238;2023-04-03T13:51:44;5.15;;;1.08;;
38783;SDS011;24531;45.502;12.238;2023-04-03T13:54:18;3.15;;;0.98;;
38783;SDS011;24531;45.502;12.238;2023-04-03T13:56:55;3.05;;;1.00;;
38783;SDS011;24531;45.502;12.238;2023-04-03T13:59:29;5.85;;;0.98;;
38783;SDS011;24531;45.502;12.238;2023-04-03T14:04:32;3.65;;;0.88;;
38783;SDS011;24531;45.502;12.238;2023-04-03T14:07:14;4.60;;;0.98;;
38783;SDS011;24531;45.502;12.238;2023-04-03T14:09:41;2.10;;;0.70;;
38783;SDS011;24531;45.502;12.238;2023-04-03T14:12:25;1.90;;;0.80;;
38783;SDS011;24531;45.502;12.238;2023-04-03T14:14:58;10.00;;;0.93;;
38783;SDS011;24531;45.502;12.238;2023-04-03T14:17:26;3.60;;;0.90;;
38783;SDS011;24531;45.502;12.238;2023-04-03T14:19:53;1.67;;;1.00;;
38783;SDS011;24531;45.502;12.238;2023-04-03T14:24:51;5.75;;;1.08;;
38783;SDS011;24531;45.502;12.238;2023-04-03T14:27:22;5.13;;;1.40;;
38783;SDS011;24531;45.502;12.238;2023-04-03T14:29:53;4.97;;;1.23;;
38783;SDS011;24531;45.502;12.238;2023-04-03T14:32:21;2.47;;;0.90;;
38783;SDS011;24531;45.502;12.238;2023-04-03T14:34:48;9.63;;;0.95;;
38783;SDS011;24531;45.502;12.238;2023-04-03T14:37:16;1.85;;;0.80;;
38783;SDS011;24531;45.502;12.238;2023-04-03T14:39:48;2.20;;;0.90;;
38783;SDS011;24531;45.502;12.238;2023-04-03T14:42:15;5.05;;;0.73;;
38783;SDS011;24531;45.502;12.238;2023-04-03T14:44:43;5.15;;;1.20;;
38783;SDS011;24531;45.502;12.238;2023-04-03T14:47:09;1.25;;;0.60;;
38783;SDS011;24531;45.502;12.238;2023-04-03T14:49:37;1.58;;;0.75;;
38783;SDS011;24531;45.502;12.238;2023-04-03T14:52:02;3.20;;;0.90;;
38783;SDS011;24531;45.502;12.238;2023-04-03T14:54:28;7.40;;;1.13;;
38783;SDS011;24531;45.502;12.238;2023-04-03T14:56:54;2.53;;;1.52;;
38783;SDS011;24531;45.502;12.238;2023-04-03T14:59:21;7.60;;;1.02;;
38783;SDS011;24531;45.502;12.238;2023-04-03T15:01:47;3.85;;;0.98;;
38783;SDS011;24531;45.502;12.238;2023-04-03T15:04:14;1.75;;;0.70;;
38783;SDS011;24531;45.502;12.238;2023-04-03T15:06:42;4.15;;;0.90;;
38783;SDS011;24531;45.502;12.238;2023-04-03T15:09:19;5.78;;;1.00;;
38783;SDS011;24531;45.502;12.238;2023-04-03T15:11:46;4.28;;;0.77;;
38783;SDS011;24531;45.502;12.238;2023-04-03T15:14:13;1.80;;;0.60;;
38783;SDS011;24531;45.502;12.238;2023-04-03T15:16:38;1.52;;;0.90;;
38783;SDS011;24531;45.502;12.238;2023-04-03T15:19:04;3.60;;;0.80;;
38783;SDS011;24531;45.502;12.238;2023-04-03T15:21:30;4.13;;;0.80;;
38783;SDS011;24531;45.502;12.238;2023-04-03T15:23:56;3.08;;;1.17;;
38783;SDS011;24531;45.502;12.238;2023-04-03T15:26:21;3.72;;;1.02;;
38783;SDS011;24531;45.502;12.238;2023-04-03T15:28:47;4.82;;;0.88;;
38783;SDS011;24531;45.502;12.238;2023-04-03T15:31:13;2.13;;;0.73;;
38783;SDS011;24531;45.502;12.238;2023-04-03T15:33:38;4.38;;;1.35;;
38783;SDS011;24531;45.502;12.238;2023-04-03T15:36:04;1.58;;;0.73;;
38783;SDS011;24531;45.502;12.238;2023-04-03T15:38:30;2.90;;;1.25;;
38783;SDS011;24531;45.502;12.238;2023-04-03T15:40:56;6.05;;;1.65;;
38783;SDS011;24531;45.502;12.238;2023-04-03T15:43:22;11.82;;;1.13;;
38783;SDS011;24531;45.502;12.238;2023-04-03T15:45:48;4.85;;;0.70;;
38783;SDS011;24531;45.502;12.238;2023-04-03T15:48:14;1.60;;;0.98;;
38783;SDS011;24531;45.502;12.238;2023-04-03T15:50:40;1.23;;;1.00;;
38783;SDS011;24531;45.502;12.238;2023-04-03T15:53:06;5.90;;;1.13;;
38783;SDS011;24531;45.502;12.238;2023-04-03T15:55:33;2.58;;;1.33;;
38783;SDS011;24531;45.502;12.238;2023-04-03T15:58:00;2.55;;;1.02;;
38783;SDS011;24531;45.502;12.238;2023-04-03T16:00:26;3.35;;;1.00;;
38783;SDS011;24531;45.502;12.238;2023-04-03T16:02:56;5.20;;;1.10;;
38783;SDS011;24531;45.502;12.238;2023-04-03T16:05:25;5.03;;;1.10;;
38783;SDS011;24531;45.502;12.238;2023-04-03T16:07:51;3.78;;;0.90;;
38783;SDS011;24531;45.502;12.238;2023-04-03T16:10:17;1.50;;;0.70;;
38783;SDS011;24531;45.502;12.238;2023-04-03T16:12:43;1.95;;;1.08;;
38783;SDS011;24531;45.502;12.238;2023-04-03T16:15:09;4.07;;;1.33;;
38783;SDS011;24531;45.502;12.238;2023-04-03T16:17:36;3.65;;;1.17;;
38783;SDS011;24531;45.502;12.238;2023-04-03T16:20:02;4.03;;;1.30;;
38783;SDS011;24531;45.502;12.238;2023-04-03T16:22:30;2.17;;;1.17;;
38783;SDS011;24531;45.502;12.238;2023-04-03T16:24:56;5.65;;;0.85;;
38783;SDS011;24531;45.502;12.238;2023-04-03T16:27:22;2.30;;;0.90;;
38783;SDS011;24531;45.502;12.238;2023-04-03T16:29:52;2.28;;;0.95;;
38783;SDS011;24531;45.502;12.238;2023-04-03T16:32:21;2.92;;;0.80;;
38783;SDS011;24531;45.502;12.238;2023-04-03T16:34:47;4.85;;;1.33;;